createdAt,value
2022-12-16T00:01:26.279Z,101047.94
2022-12-16T00:06:16.952Z,101059.69
2022-12-16T00:11:08.983Z,101060.00
2022-12-16T00:16:00.217Z,101070.69
2022-12-16T00:20:56.002Z,101077.09
2022-12-16T00:25:45.819Z,101082.50
2022-12-16T00:30:36.220Z,101080.38
2022-12-16T00:35:26.763Z,101091.34
2022-12-16T00:40:21.432Z,101096.94
2022-12-16T00:45:11.849Z,101099.94
2022-12-16T00:50:02.020Z,101108.06
2022-12-16T00:54:51.690Z,101106.47
2022-12-16T00:59:44.507Z,101111.59
2022-12-16T01:04:34.816Z,101113.28
2022-12-16T01:09:24.693Z,101117.41
2022-12-16T01:14:14.304Z,101095.41
2022-12-16T01:19:06.900Z,101124.06
2022-12-16T01:23:56.580Z,101127.47
2022-12-16T01:28:46.101Z,101134.41
2022-12-16T01:33:36.244Z,101136.94
2022-12-16T01:38:30.121Z,101151.44
2022-12-16T01:43:21.898Z,101154.88
2022-12-16T01:48:16.593Z,101166.81
2022-12-16T01:53:07.955Z,101174.50
2022-12-16T01:58:03.127Z,101180.25
2022-12-16T02:02:54.318Z,101179.41
2022-12-16T02:07:44.915Z,101181.72
2022-12-16T02:12:42.393Z,101179.00
2022-12-16T02:17:41.323Z,101182.16
2022-12-16T02:22:36.901Z,101187.78
2022-12-16T02:27:55.050Z,101196.84
2022-12-16T02:32:56.279Z,101205.69
2022-12-16T02:37:47.779Z,101204.53
2022-12-16T02:42:40.868Z,101211.94
2022-12-16T02:47:30.900Z,101210.78
2022-12-16T02:52:25.698Z,101214.75
2022-12-16T02:57:22.657Z,101213.59
2022-12-16T03:02:16.424Z,101222.72
2022-12-16T03:07:08.206Z,101233.47
2022-12-16T03:12:02.714Z,101232.63
2022-12-16T03:16:52.929Z,101236.81
2022-12-16T03:21:46.884Z,101246.25
2022-12-16T03:26:39.136Z,101246.09
2022-12-16T03:31:38.425Z,101252.56
2022-12-16T03:36:31.172Z,101262.53
2022-12-16T03:41:23.410Z,101276.78
2022-12-16T03:46:13.826Z,101274.97
2022-12-16T03:51:06.252Z,101280.13
2022-12-16T03:55:56.221Z,101300.69
2022-12-16T04:00:45.771Z,101305.06
2022-12-16T04:05:36.088Z,101310.84
2022-12-16T04:10:40.925Z,101319.31
2022-12-16T04:15:43.480Z,101321.75
2022-12-16T04:20:48.196Z,101324.13
2022-12-16T04:25:40.913Z,101319.06
2022-12-16T04:30:34.801Z,101322.25
2022-12-16T04:35:36.987Z,101324.63
2022-12-16T04:40:38.813Z,101336.44
2022-12-16T04:45:45.772Z,101342.13
2022-12-16T04:50:47.875Z,101334.44
2022-12-16T04:55:50.128Z,101342.91
2022-12-16T05:00:55.029Z,101337.75
2022-12-16T05:05:58.029Z,101339.41
2022-12-16T05:11:00.128Z,101342.03
2022-12-16T05:16:04.723Z,101338.44
2022-12-16T05:21:06.926Z,101347.53
2022-12-16T05:26:09.552Z,101361.69
2022-12-16T05:31:15.023Z,101363.06
2022-12-16T05:36:17.463Z,101361.44
2022-12-16T05:41:20.151Z,101370.53
2022-12-16T05:46:25.354Z,101379.53
2022-12-16T05:51:27.948Z,101384.00
2022-12-16T05:56:30.233Z,101391.25
2022-12-16T06:01:38.637Z,101405.50
2022-12-16T06:06:41.904Z,101401.09
2022-12-16T06:11:45.368Z,101393.59
2022-12-16T06:16:53.562Z,101408.22
2022-12-16T06:21:55.844Z,101405.22
2022-12-16T06:26:58.071Z,101377.44
2022-12-16T06:32:03.648Z,101407.06
2022-12-16T06:37:05.952Z,101397.97
2022-12-16T06:42:08.225Z,101418.94
2022-12-16T06:47:13.153Z,101432.47
2022-12-16T06:52:16.421Z,101441.53
2022-12-16T06:57:19.151Z,101434.09
2022-12-16T07:02:26.039Z,101447.53
2022-12-16T07:07:28.399Z,101460.47
2022-12-16T07:12:31.073Z,101463.59
2022-12-16T07:17:36.383Z,101462.91
2022-12-16T07:22:39.263Z,101477.25
2022-12-16T07:27:41.547Z,101491.25
2022-12-16T07:32:47.275Z,101493.59
2022-12-16T07:37:53.364Z,101505.06
2022-12-16T07:42:56.855Z,101509.69
2022-12-16T07:48:05.999Z,101509.47
2022-12-16T07:53:11.511Z,101516.00
2022-12-16T07:58:13.928Z,101529.63
2022-12-16T08:03:19.014Z,101541.22
2022-12-16T08:08:21.393Z,101544.63
2022-12-16T08:13:25.797Z,101551.06
2022-12-16T08:18:31.209Z,101562.50
2022-12-16T08:23:34.913Z,101565.03
2022-12-16T08:28:37.850Z,101549.41
2022-12-16T08:33:43.631Z,101572.47
2022-12-16T08:38:46.467Z,101572.00
2022-12-16T08:43:50.246Z,101588.50
2022-12-16T08:48:57.487Z,101600.97
2022-12-16T08:54:01.459Z,101603.47
2022-12-16T08:59:06.865Z,101603.22
2022-12-16T09:04:13.126Z,101609.00
2022-12-16T09:09:15.881Z,101601.59
2022-12-16T09:14:20.427Z,101619.34
2022-12-16T09:19:28.135Z,101619.28
2022-12-16T09:24:31.725Z,101626.72
2022-12-16T09:29:34.991Z,101627.69
2022-12-16T09:34:40.145Z,101649.75
2022-12-16T09:39:42.486Z,101646.84
2022-12-16T09:45:02.812Z,101661.88
2022-12-16T09:50:10.217Z,101677.25
2022-12-16T09:55:13.638Z,101678.91
2022-12-16T10:00:19.649Z,101692.72
2022-12-16T10:05:30.234Z,101694.72
2022-12-16T10:10:41.224Z,101696.69
2022-12-16T10:15:52.376Z,101704.25
2022-12-16T10:21:02.584Z,101709.28
2022-12-16T10:26:11.229Z,101710.94
2022-12-16T10:31:14.424Z,101717.16
2022-12-16T10:36:27.509Z,101718.22
2022-12-16T10:41:30.907Z,101726.47
2022-12-16T10:46:37.910Z,101714.56
2022-12-16T10:51:44.468Z,101707.25
2022-12-16T10:57:07.248Z,101708.81
2022-12-16T11:02:16.432Z,101720.28
2022-12-16T11:07:37.401Z,101707.84
2022-12-16T11:12:42.710Z,101709.34
2022-12-16T11:17:45.496Z,101721.31
2022-12-16T11:22:50.550Z,101706.34
2022-12-16T11:27:53.346Z,101719.75
2022-12-16T11:32:59.811Z,101727.72
2022-12-16T11:38:08.304Z,101732.03
2022-12-16T11:43:16.945Z,101715.69
2022-12-16T11:48:27.875Z,101710.50
2022-12-16T11:53:48.030Z,101719.19
2022-12-16T11:58:57.698Z,101720.50
2022-12-16T12:04:04.080Z,101708.38
2022-12-16T12:09:21.558Z,101719.25
2022-12-16T12:14:34.434Z,101714.88
2022-12-16T12:19:47.686Z,101723.66
2022-12-16T12:25:01.731Z,101731.38
2022-12-16T12:30:16.905Z,101730.84
2022-12-16T12:35:33.806Z,101742.03
2022-12-16T12:40:56.427Z,101743.13
2022-12-16T12:46:14.129Z,101739.88
2022-12-16T12:51:25.237Z,101745.88
2022-12-16T12:56:43.949Z,101744.16
2022-12-16T13:01:50.545Z,101748.88
2022-12-16T13:06:54.438Z,101737.69
2022-12-16T13:12:30.661Z,101754.72
2022-12-16T13:17:36.612Z,101755.41
2022-12-16T13:22:47.442Z,101763.78
2022-12-16T13:28:08.211Z,101767.09
2022-12-16T13:33:30.615Z,101754.97
2022-12-16T13:38:36.654Z,101753.16
2022-12-16T13:43:59.600Z,101767.63
2022-12-16T13:49:05.441Z,101776.81
2022-12-16T13:54:09.722Z,101774.88
2022-12-16T13:59:19.272Z,101785.97
2022-12-16T14:04:41.630Z,101798.75
2022-12-16T14:09:50.982Z,101801.31
2022-12-16T14:14:59.746Z,101815.78
2022-12-16T14:20:12.455Z,101812.16
2022-12-16T14:25:24.694Z,101817.16
2022-12-16T14:30:34.230Z,101826.50
2022-12-16T14:35:49.419Z,101809.63
2022-12-16T14:40:51.991Z,101844.41
2022-12-16T14:45:55.185Z,101843.28
2022-12-16T14:51:00.363Z,101854.19
2022-12-16T14:56:03.073Z,101826.53
2022-12-16T15:01:13.816Z,101865.94
2022-12-16T15:06:23.530Z,101872.88
2022-12-16T15:11:29.473Z,101877.28
2022-12-16T15:16:36.447Z,101875.44
2022-12-16T15:21:42.618Z,101885.00
2022-12-16T15:26:47.491Z,101903.16
2022-12-16T15:31:51.708Z,101908.19
2022-12-16T15:37:03.402Z,101915.03
2022-12-16T15:42:06.990Z,101907.22
2022-12-16T15:47:10.270Z,101920.31
2022-12-16T15:52:18.408Z,101927.97
2022-12-16T15:57:45.432Z,101932.19
2022-12-16T16:02:53.758Z,101935.66
2022-12-16T16:08:03.502Z,101924.13
2022-12-16T16:13:11.124Z,101933.94
2022-12-16T16:18:16.373Z,101942.53
2022-12-16T16:23:22.892Z,101952.91
2022-12-16T16:28:26.049Z,101949.03
2022-12-16T16:33:28.414Z,101981.94
2022-12-16T16:38:33.375Z,101983.72
2022-12-16T16:43:36.003Z,101978.63
2022-12-16T16:48:39.093Z,101988.78
2022-12-16T16:53:43.830Z,101982.16
2022-12-16T16:58:49.575Z,101971.44
2022-12-16T17:03:51.994Z,101978.38
2022-12-16T17:08:57.707Z,102002.00
2022-12-16T17:14:01.533Z,102008.25
2022-12-16T17:19:03.808Z,101996.41
2022-12-16T17:24:10.690Z,102020.56
2022-12-16T17:29:13.747Z,102030.19
2022-12-16T17:34:24.351Z,102027.91
2022-12-16T17:39:30.386Z,102032.78
2022-12-16T17:44:33.899Z,102029.19
2022-12-16T17:49:44.990Z,102040.13
2022-12-16T17:54:54.966Z,102029.03
2022-12-16T17:59:59.665Z,102035.44
2022-12-16T18:05:03.412Z,102048.78
2022-12-16T18:10:09.422Z,102061.28
2022-12-16T18:15:12.019Z,102061.38
2022-12-16T18:20:14.270Z,102062.50
2022-12-16T18:25:33.371Z,102066.72
2022-12-16T18:30:37.056Z,102045.22
2022-12-16T18:35:39.854Z,102055.25
2022-12-16T18:40:45.632Z,102068.81
2022-12-16T18:45:49.641Z,102046.31
2022-12-16T18:50:52.034Z,102084.03
2022-12-16T18:56:02.165Z,102080.38
2022-12-16T19:01:04.610Z,102065.72
2022-12-16T19:06:12.309Z,102081.69
2022-12-16T19:11:17.278Z,102095.78
2022-12-16T19:16:20.215Z,102095.25
2022-12-16T19:21:22.702Z,102086.84
2022-12-16T19:26:32.173Z,102103.03
2022-12-16T19:31:42.773Z,102069.56
2022-12-16T19:36:55.297Z,102071.88
2022-12-16T19:42:02.344Z,102113.22
2022-12-16T19:47:05.504Z,102123.47
2022-12-16T19:52:09.445Z,102124.09
2022-12-16T19:57:18.290Z,102098.09
2022-12-16T20:02:22.120Z,102119.72
2022-12-16T20:07:25.014Z,102135.16
2022-12-16T20:12:32.032Z,102156.06
2022-12-16T20:17:40.479Z,102136.75
2022-12-16T20:22:51.970Z,102157.75
2022-12-16T20:27:58.473Z,102160.69
2022-12-16T20:33:16.017Z,102167.16
2022-12-16T20:38:19.433Z,102170.25
2022-12-16T20:43:35.906Z,102173.28
2022-12-16T20:48:41.307Z,102169.28
2022-12-16T20:53:48.144Z,102176.13
2022-12-16T20:58:57.369Z,102184.47
2022-12-16T21:04:03.708Z,102131.19
2022-12-16T21:09:07.391Z,102179.34
2022-12-16T21:14:20.724Z,102187.81
2022-12-16T21:19:29.422Z,102201.34
2022-12-16T21:24:38.796Z,102213.97
2022-12-16T21:29:47.302Z,102217.19
2022-12-16T21:34:53.092Z,102240.06
2022-12-16T21:39:58.839Z,102236.53
2022-12-16T21:45:04.748Z,102241.22
2022-12-16T21:50:08.615Z,102245.28
2022-12-16T21:55:13.208Z,102257.03
2022-12-16T22:00:22.919Z,102248.31
2022-12-16T22:05:26.875Z,102264.00
2022-12-16T22:10:30.149Z,102273.09
2022-12-16T22:15:37.389Z,102268.16
2022-12-16T22:20:43.487Z,102263.22
2022-12-16T22:25:46.758Z,102276.50
2022-12-16T22:30:52.617Z,102282.81
2022-12-16T22:35:59.668Z,102292.66
2022-12-16T22:41:10.454Z,102295.56
2022-12-16T22:46:18.089Z,102298.63
2022-12-16T22:51:27.223Z,102292.16
2022-12-16T22:56:31.464Z,102299.88
2022-12-16T23:01:37.970Z,102292.78
2022-12-16T23:06:42.636Z,102303.91
2022-12-16T23:11:50.183Z,102302.72
2022-12-16T23:16:58.879Z,102301.97
2022-12-16T23:22:05.686Z,102304.50
2022-12-16T23:27:08.895Z,102308.81
2022-12-16T23:32:15.515Z,102307.94
2022-12-16T23:37:21.294Z,102308.56
2022-12-16T23:42:24.620Z,102300.94
2022-12-16T23:47:30.738Z,102298.28
2022-12-16T23:52:33.934Z,102298.91
2022-12-16T23:57:36.514Z,102306.13
